Time;durP1;ratioP1;P1;durP2;ratioP2;P2;SDS_P1;SDS_P2;PMS_P1;PMS_P2;Temp;Humidity;BMP_temperature;BMP_pressure;BME280_temperature;BME280_humidity;BME280_pressure;Samples;Min_cycle;Max_cycle;Signal;HPM_P1;HPM_P2
2023/03/17 00:01:02;;;;;;;;;;;9.80;56.30;;;;;;5044132;28;20429;-81
2023/03/17 00:03:30;;;;;;;;;;;9.80;55.90;;;;;;5056293;28;20022;-80
2023/03/17 00:05:57;;;;;;;;;;;9.80;56.00;;;;;;5046366;28;19920;-80
2023/03/17 00:08:26;;;;;;;;;;;9.70;56.80;;;;;;5063969;28;19982;-79
2023/03/17 00:10:52;;;;;;;;;;;9.80;56.00;;;;;;5046948;28;19912;-81
2023/03/17 00:13:17;;;;;;;;;;;9.90;56.30;;;;;;5049016;28;19917;-80
2023/03/17 00:15:44;;;;;;;;;;;9.90;55.80;;;;;;5055076;28;19915;-80
2023/03/17 00:18:12;;;;;;;;;;;10.00;55.50;;;;;;5043655;28;19913;-80
2023/03/17 00:20:38;;;;;;;;;;;10.00;55.10;;;;;;5068726;28;19913;-80
2023/03/17 00:23:04;;;;;;;;;;;10.00;55.20;;;;;;5066618;28;19967;-79
2023/03/17 00:25:33;;;;;;;;;;;10.00;55.90;;;;;;5036035;28;20375;-80
2023/03/17 00:28:00;;;;;;;;;;;9.90;56.10;;;;;;5047362;28;20494;-80
2023/03/17 00:30:26;;;;;;;;;;;10.00;55.20;;;;;;5044825;28;20356;-79
2023/03/17 00:32:54;;;;;;;;;;;10.10;55.20;;;;;;5051692;28;20428;-79
2023/03/17 00:35:24;;;;;;;;;;;10.00;55.10;;;;;;5071173;28;19981;-79
2023/03/17 00:37:51;;;;;;;;;;;10.00;55.50;;;;;;5051664;28;20040;-79
2023/03/17 00:40:24;;;;;;;;;;;10.20;54.90;;;;;;5072416;28;19931;-80
2023/03/17 00:42:50;;;;;;;;;;;10.10;54.80;;;;;;5060457;28;19920;-79
2023/03/17 00:45:16;;;;;;;;;;;10.10;55.00;;;;;;5051285;28;19978;-79
2023/03/17 00:47:42;;;;;;;;;;;10.10;54.70;;;;;;5059707;28;19925;-80
2023/03/17 00:50:12;;;;;;;;;;;10.10;54.90;;;;;;5069128;28;19995;-78
2023/03/17 00:52:38;;;;;;;;;;;10.10;55.30;;;;;;5056179;28;20030;-80
2023/03/17 00:55:04;;;;;;;;;;;10.10;54.80;;;;;;5048303;28;19917;-79
2023/03/17 00:57:30;;;;;;;;;;;10.10;54.40;;;;;;5050563;28;21151;-79
2023/03/17 00:59:55;;;;;;;;;;;10.00;55.80;;;;;;5062600;28;20016;-79
2023/03/17 01:02:21;;;;;;;;;;;10.00;55.70;;;;;;5056288;28;19968;-81
2023/03/17 01:04:46;;;;;;;;;;;9.90;56.70;;;;;;5062730;28;19913;-79
2023/03/17 01:07:12;;;;;;;;;;;9.90;56.30;;;;;;5052682;28;20557;-81
2023/03/17 01:09:40;;;;;;;;;;;9.80;56.20;;;;;;5053611;28;20459;-80
2023/03/17 01:12:06;;;;;;;;;;;9.70;56.50;;;;;;5045904;28;19912;-80
2023/03/17 01:14:32;;;;;;;;;;;9.70;56.90;;;;;;5044567;28;20163;-80
2023/03/17 01:16:58;;;;;;;;;;;9.60;57.10;;;;;;5043927;28;20349;-80
2023/03/17 01:19:24;;;;;;;;;;;9.50;57.10;;;;;;5067444;28;19923;-81
2023/03/17 01:21:49;;;;;;;;;;;9.50;57.50;;;;;;5063094;28;19917;-79
2023/03/17 01:24:15;;;;;;;;;;;9.50;57.50;;;;;;5057301;28;19928;-79
2023/03/17 01:26:40;;;;;;;;;;;9.60;57.10;;;;;;5043109;28;19966;-80
2023/03/17 01:29:06;;;;;;;;;;;9.50;57.60;;;;;;5047049;28;19916;-79
2023/03/17 01:31:32;;;;;;;;;;;9.50;57.80;;;;;;5045831;28;19990;-80
2023/03/17 01:33:58;;;;;;;;;;;9.40;57.70;;;;;;5086054;28;19909;-80
2023/03/17 01:36:23;;;;;;;;;;;9.60;57.40;;;;;;5079789;28;19905;-79
2023/03/17 01:38:49;;;;;;;;;;;9.60;57.50;;;;;;5077606;28;19917;-80
2023/03/17 01:41:17;;;;;;;;;;;9.60;57.10;;;;;;5076800;28;20037;-80
2023/03/17 01:43:42;;;;;;;;;;;9.70;57.10;;;;;;5077320;28;19920;-80
2023/03/17 01:46:26;;;;;;;;;;;9.70;57.20;;;;;;5059084;28;20007;-81
2023/03/17 01:49:11;;;;;;;;;;;9.60;57.40;;;;;;5045942;28;19913;-81
2023/03/17 01:51:43;;;;;;;;;;;9.60;57.70;;;;;;5058362;28;19913;-81
2023/03/17 01:54:11;;;;;;;;;;;9.50;57.60;;;;;;5056974;28;19967;-80
2023/03/17 01:56:37;;;;;;;;;;;9.40;57.50;;;;;;5073478;28;19959;-81
2023/03/17 01:59:06;;;;;;;;;;;9.30;58.10;;;;;;5054685;28;20004;-82
2023/03/17 02:01:37;;;;;;;;;;;9.30;58.50;;;;;;5053529;28;19955;-81
2023/03/17 02:04:03;;;;;;;;;;;9.30;58.30;;;;;;5070721;28;19958;-81
2023/03/17 02:06:29;;;;;;;;;;;9.40;57.90;;;;;;5048611;28;19920;-80
2023/03/17 02:08:55;;;;;;;;;;;9.50;57.20;;;;;;5052491;28;20442;-80
2023/03/17 02:14:24;;;;;;;;;;;9.60;57.20;;;;;;5062141;28;19927;-81
2023/03/17 02:16:50;;;;;;;;;;;9.50;57.10;;;;;;5050068;28;19925;-79
2023/03/17 02:19:15;;;;;;;;;;;9.60;57.00;;;;;;5071663;28;19921;-80
2023/03/17 02:21:42;;;;;;;;;;;9.50;57.10;;;;;;5048879;28;19913;-81
2023/03/17 02:24:23;;;;;;;;;;;9.60;57.40;;;;;;5057102;28;19999;-81
2023/03/17 02:26:50;;;;;;;;;;;9.60;56.40;;;;;;5050358;28;19923;-80
2023/03/17 02:29:15;;;;;;;;;;;9.70;55.80;;;;;;5051724;28;19940;-79
2023/03/17 02:31:41;;;;;;;;;;;9.70;56.10;;;;;;5071817;28;19912;-80
2023/03/17 02:34:07;;;;;;;;;;;9.80;56.20;;;;;;5057744;28;20577;-81
2023/03/17 02:36:32;;;;;;;;;;;9.70;56.20;;;;;;5054616;28;20031;-81
2023/03/17 02:38:58;;;;;;;;;;;9.80;56.10;;;;;;5051502;28;19935;-81
2023/03/17 02:41:23;;;;;;;;;;;9.80;56.10;;;;;;5050746;28;19923;-81
2023/03/17 02:43:49;;;;;;;;;;;9.70;56.00;;;;;;5049696;28;19921;-81
2023/03/17 02:46:15;;;;;;;;;;;9.80;55.60;;;;;;5059953;28;19924;-81
2023/03/17 02:48:41;;;;;;;;;;;9.60;56.40;;;;;;5050660;28;19989;-80
2023/03/17 02:51:06;;;;;;;;;;;9.60;56.00;;;;;;5076127;28;20010;-80
2023/03/17 02:53:32;;;;;;;;;;;9.50;57.00;;;;;;5054481;28;19923;-80
2023/03/17 02:55:57;;;;;;;;;;;9.70;56.30;;;;;;5072171;28;20411;-80
2023/03/17 02:58:23;;;;;;;;;;;9.60;57.00;;;;;;5049035;28;19923;-80
2023/03/17 03:00:48;;;;;;;;;;;9.60;56.90;;;;;;5051488;28;19935;-79
2023/03/17 03:03:14;;;;;;;;;;;9.50;56.60;;;;;;5085449;28;19912;-79
2023/03/17 03:05:41;;;;;;;;;;;9.40;57.00;;;;;;5059924;28;19916;-80
2023/03/17 03:08:07;;;;;;;;;;;9.60;56.70;;;;;;5042899;28;19928;-78
2023/03/17 03:10:32;;;;;;;;;;;9.50;56.40;;;;;;5067529;28;20040;-80
2023/03/17 03:12:58;;;;;;;;;;;9.40;57.00;;;;;;5056541;28;19952;-80
2023/03/17 03:15:23;;;;;;;;;;;9.40;57.30;;;;;;5070115;28;19971;-79
2023/03/17 03:17:49;;;;;;;;;;;9.30;57.40;;;;;;5052023;28;19923;-79
2023/03/17 03:20:15;;;;;;;;;;;9.30;57.50;;;;;;5045956;28;19928;-79
2023/03/17 03:22:40;;;;;;;;;;;9.30;57.40;;;;;;5055154;28;19913;-79
2023/03/17 03:25:07;;;;;;;;;;;9.40;57.60;;;;;;5069277;28;19923;-80
2023/03/17 03:27:33;;;;;;;;;;;9.40;56.80;;;;;;5056311;28;19923;-79
2023/03/17 03:29:58;;;;;;;;;;;9.40;57.00;;;;;;5047604;28;20007;-79
2023/03/17 03:32:24;;;;;;;;;;;9.50;56.80;;;;;;5049605;28;20608;-80
2023/03/17 03:34:50;;;;;;;;;;;9.50;56.70;;;;;;5055152;28;19956;-79
2023/03/17 03:37:16;;;;;;;;;;;9.40;57.40;;;;;;5041915;28;19920;-79
2023/03/17 03:39:41;;;;;;;;;;;9.50;56.90;;;;;;5047999;28;19913;-79
2023/03/17 03:42:07;;;;;;;;;;;9.40;56.80;;;;;;5060003;28;19952;-78
2023/03/17 03:44:33;;;;;;;;;;;9.40;56.80;;;;;;5051464;28;20015;-79
2023/03/17 03:46:58;;;;;;;;;;;9.50;56.50;;;;;;5060575;28;19917;-79
2023/03/17 03:49:24;;;;;;;;;;;9.50;56.40;;;;;;5066862;28;19916;-82
2023/03/17 03:51:49;;;;;;;;;;;9.30;56.90;;;;;;5043022;28;19917;-80
2023/03/17 03:54:15;;;;;;;;;;;9.30;57.00;;;;;;5052595;28;19934;-78
2023/03/17 03:56:40;;;;;;;;;;;9.30;57.60;;;;;;5050003;28;19935;-78
2023/03/17 03:59:06;;;;;;;;;;;9.20;57.50;;;;;;5051878;28;19952;-78
2023/03/17 04:01:31;;;;;;;;;;;9.20;57.30;;;;;;5052994;28;19920;-78
2023/03/17 04:03:57;;;;;;;;;;;9.30;57.20;;;;;;5045303;28;19967;-79
2023/03/17 04:06:22;;;;;;;;;;;9.20;57.70;;;;;;5067212;28;19917;-79
2023/03/17 04:08:48;;;;;;;;;;;9.30;56.70;;;;;;5047819;28;19912;-79
2023/03/17 04:11:14;;;;;;;;;;;9.30;57.20;;;;;;5040905;28;20380;-79
2023/03/17 04:13:39;;;;;;;;;;;9.20;57.00;;;;;;5067282;28;19928;-79
2023/03/17 04:16:05;;;;;;;;;;;9.30;57.00;;;;;;5047336;28;19912;-79
2023/03/17 04:18:30;;;;;;;;;;;9.20;56.70;;;;;;5040772;28;19935;-79
2023/03/17 04:20:56;;;;;;;;;;;9.20;57.00;;;;;;5048361;28;20372;-79
2023/03/17 04:23:22;;;;;;;;;;;9.10;57.70;;;;;;5071949;28;20279;-79
2023/03/17 04:25:49;;;;;;;;;;;9.10;57.30;;;;;;5074046;28;20387;-79
2023/03/17 04:28:14;;;;;;;;;;;9.10;57.10;;;;;;5064802;28;19920;-79
2023/03/17 04:30:40;;;;;;;;;;;9.10;57.40;;;;;;5047340;28;20283;-78
2023/03/17 04:33:06;;;;;;;;;;;9.10;57.00;;;;;;5043856;28;19967;-78
2023/03/17 04:35:31;;;;;;;;;;;9.10;56.90;;;;;;5062349;28;19923;-80
2023/03/17 04:37:57;;;;;;;;;;;9.10;57.00;;;;;;5054067;28;20296;-80
2023/03/17 04:40:22;;;;;;;;;;;9.10;57.40;;;;;;5050698;28;20368;-80
2023/03/17 04:42:48;;;;;;;;;;;9.10;57.60;;;;;;5048761;28;19912;-80
2023/03/17 04:45:14;;;;;;;;;;;9.10;57.60;;;;;;5064695;28;19913;-79
2023/03/17 04:47:40;;;;;;;;;;;9.10;57.60;;;;;;5070745;28;19943;-78
2023/03/17 04:50:07;;;;;;;;;;;8.90;57.70;;;;;;5066353;28;20380;-79
2023/03/17 04:52:33;;;;;;;;;;;9.00;57.40;;;;;;5064078;28;19916;-79
2023/03/17 04:54:59;;;;;;;;;;;8.90;58.50;;;;;;5052748;28;19913;-80
2023/03/17 04:57:24;;;;;;;;;;;8.80;59.50;;;;;;5050616;28;20367;-79
2023/03/17 04:59:50;;;;;;;;;;;8.80;59.10;;;;;;5053343;28;20548;-80
2023/03/17 05:02:17;;;;;;;;;;;8.70;59.60;;;;;;5068375;28;19916;-80
2023/03/17 05:04:44;;;;;;;;;;;8.80;58.60;;;;;;5050653;28;19912;-80
2023/03/17 05:07:10;;;;;;;;;;;9.00;57.80;;;;;;5053041;28;19916;-79
2023/03/17 05:09:35;;;;;;;;;;;9.10;57.10;;;;;;5076290;28;19935;-79
2023/03/17 05:12:01;;;;;;;;;;;9.10;56.90;;;;;;5055763;28;20384;-80
2023/03/17 05:14:26;;;;;;;;;;;9.10;56.80;;;;;;5047567;28;19938;-80
2023/03/17 05:16:52;;;;;;;;;;;9.10;57.40;;;;;;5069963;28;20330;-79
2023/03/17 05:19:17;;;;;;;;;;;9.00;57.60;;;;;;5065502;28;19972;-79
2023/03/17 05:21:43;;;;;;;;;;;9.00;57.20;;;;;;5065940;28;19987;-78
2023/03/17 05:24:09;;;;;;;;;;;9.00;57.70;;;;;;5063499;28;19980;-77
2023/03/17 05:26:35;;;;;;;;;;;9.10;57.20;;;;;;5061819;28;19913;-78
2023/03/17 05:29:00;;;;;;;;;;;9.10;57.80;;;;;;5067574;28;19923;-78
2023/03/17 05:31:26;;;;;;;;;;;9.10;57.10;;;;;;5081198;28;19923;-77
2023/03/17 05:33:51;;;;;;;;;;;9.10;58.00;;;;;;5070438;28;19923;-78
2023/03/17 05:36:17;;;;;;;;;;;9.00;58.60;;;;;;5083000;28;19983;-77
2023/03/17 05:38:42;;;;;;;;;;;8.90;58.20;;;;;;5082599;28;19977;-78
2023/03/17 05:41:09;;;;;;;;;;;8.90;59.00;;;;;;5058614;28;19909;-78
2023/03/17 05:43:35;;;;;;;;;;;8.90;58.30;;;;;;5064933;28;20402;-79
2023/03/17 05:46:00;;;;;;;;;;;8.90;58.90;;;;;;5056744;28;19913;-79
2023/03/17 05:48:26;;;;;;;;;;;8.80;58.80;;;;;;5073488;28;19936;-80
2023/03/17 05:50:51;;;;;;;;;;;8.90;58.00;;;;;;5074709;28;19908;-79
2023/03/17 05:53:17;;;;;;;;;;;8.90;58.20;;;;;;5050585;28;19967;-79
2023/03/17 05:55:43;;;;;;;;;;;8.90;57.80;;;;;;5075245;28;19917;-78
2023/03/17 05:58:09;;;;;;;;;;;8.90;58.20;;;;;;5051240;28;19960;-79
2023/03/17 06:00:35;;;;;;;;;;;9.10;57.30;;;;;;5046918;28;20395;-79
2023/03/17 06:03:01;;;;;;;;;;;9.10;57.40;;;;;;5050399;28;20334;-78
2023/03/17 06:05:26;;;;;;;;;;;9.10;57.30;;;;;;5054777;28;20017;-79
2023/03/17 06:07:52;;;;;;;;;;;9.10;57.50;;;;;;5076587;28;19935;-78
2023/03/17 06:10:17;;;;;;;;;;;9.10;58.00;;;;;;5054689;28;19940;-79
2023/03/17 06:12:43;;;;;;;;;;;9.10;57.40;;;;;;5054625;28;20375;-79
2023/03/17 06:15:08;;;;;;;;;;;9.10;57.70;;;;;;5067592;28;19912;-79
2023/03/17 06:17:34;;;;;;;;;;;9.10;57.20;;;;;;5050685;28;19921;-81
2023/03/17 06:20:00;;;;;;;;;;;9.10;57.50;;;;;;5071646;28;19917;-81
2023/03/17 06:22:26;;;;;;;;;;;9.20;57.30;;;;;;5078557;28;19912;-78
2023/03/17 06:24:52;;;;;;;;;;;9.10;57.90;;;;;;5057179;28;19912;-79
2023/03/17 06:27:17;;;;;;;;;;;9.20;57.50;;;;;;5069493;28;19974;-79
2023/03/17 06:29:43;;;;;;;;;;;9.30;57.00;;;;;;5066148;28;19916;-79
2023/03/17 06:32:08;;;;;;;;;;;9.40;57.00;;;;;;5061728;28;19916;-80
2023/03/17 06:34:34;;;;;;;;;;;9.30;57.30;;;;;;5054739;28;20011;-78
2023/03/17 06:36:59;;;;;;;;;;;9.40;56.70;;;;;;5041755;28;19920;-87
2023/03/17 06:39:25;;;;;;;;;;;9.40;57.60;;;;;;5049713;28;19970;-83
2023/03/17 06:41:50;;;;;;;;;;;9.40;57.40;;;;;;5056621;28;19945;-80
2023/03/17 06:44:16;;;;;;;;;;;9.50;56.70;;;;;;5063870;28;19912;-80
2023/03/17 06:46:42;;;;;;;;;;;9.50;57.00;;;;;;5052149;28;19924;-86
2023/03/17 06:49:08;;;;;;;;;;;9.50;57.10;;;;;;5048713;28;19932;-83
2023/03/17 06:51:36;;;;;;;;;;;9.60;57.00;;;;;;5057827;28;20004;-87
2023/03/17 06:54:01;;;;;;;;;;;9.60;57.00;;;;;;5061913;28;19909;-84
2023/03/17 06:56:26;;;;;;;;;;;9.70;56.80;;;;;;5060281;28;19960;-84
2023/03/17 06:58:52;;;;;;;;;;;9.80;56.90;;;;;;5068087;28;19940;-84
2023/03/17 07:01:18;;;;;;;;;;;9.90;56.10;;;;;;5052337;28;20355;-84
2023/03/17 07:03:44;;;;;;;;;;;9.90;56.30;;;;;;5047467;28;19920;-83
2023/03/17 07:06:09;;;;;;;;;;;10.00;55.80;;;;;;5047428;28;19990;-77
2023/03/17 07:08:35;;;;;;;;;;;10.00;56.10;;;;;;5068587;28;20315;-78
2023/03/17 07:11:02;;;;;;;;;;;9.90;56.70;;;;;;5045366;28;19920;-79
2023/03/17 07:13:27;;;;;;;;;;;10.00;56.40;;;;;;5052978;28;20001;-78
2023/03/17 07:15:53;;;;;;;;;;;10.00;56.70;;;;;;5066441;28;19964;-79
2023/03/17 07:18:18;;;;;;;;;;;10.10;55.90;;;;;;5043534;28;20398;-79
2023/03/17 07:20:45;;;;;;;;;;;10.20;55.80;;;;;;5040753;28;19919;-79
2023/03/17 07:23:17;;;;;;;;;;;10.30;55.80;;;;;;5047750;28;19965;-78
2023/03/17 07:25:44;;;;;;;;;;;10.30;55.70;;;;;;5060338;28;19934;-79
2023/03/17 07:28:10;;;;;;;;;;;10.40;55.30;;;;;;5046043;28;20096;-79
2023/03/17 07:30:36;;;;;;;;;;;10.40;55.60;;;;;;5072719;28;20399;-79
2023/03/17 07:33:02;;;;;;;;;;;10.40;55.30;;;;;;5045741;28;19917;-79
2023/03/17 07:35:29;;;;;;;;;;;10.50;55.00;;;;;;5063453;28;19982;-79
2023/03/17 07:37:55;;;;;;;;;;;10.60;54.80;;;;;;5064535;28;19913;-78
2023/03/17 07:40:20;;;;;;;;;;;10.80;54.80;;;;;;5051949;28;19939;-79
2023/03/17 07:42:46;;;;;;;;;;;11.00;54.60;;;;;;5050315;28;19936;-80
2023/03/17 07:45:12;;;;;;;;;;;11.10;54.00;;;;;;5067017;28;19925;-79
2023/03/17 07:47:38;;;;;;;;;;;11.20;53.80;;;;;;5052616;28;20042;-81
2023/03/17 07:50:03;;;;;;;;;;;11.30;53.70;;;;;;5068224;28;19912;-80
2023/03/17 07:52:29;;;;;;;;;;;11.30;53.80;;;;;;5046442;28;19920;-80
2023/03/17 07:54:57;;;;;;;;;;;11.30;53.80;;;;;;5069421;28;19958;-79
2023/03/17 07:57:22;;;;;;;;;;;11.20;54.50;;;;;;5050344;28;19971;-80
2023/03/17 07:59:49;;;;;;;;;;;11.30;54.20;;;;;;5047135;28;19952;-79
2023/03/17 08:02:15;;;;;;;;;;;11.40;53.50;;;;;;5066188;28;20397;-79
2023/03/17 08:04:41;;;;;;;;;;;11.50;53.50;;;;;;5052440;28;20494;-79
2023/03/17 08:07:07;;;;;;;;;;;11.50;54.10;;;;;;5054507;28;19913;-79
2023/03/17 08:09:32;;;;;;;;;;;11.60;53.90;;;;;;5068717;28;19916;-79
2023/03/17 08:11:58;;;;;;;;;;;11.80;53.30;;;;;;5051514;28;19913;-79
2023/03/17 08:14:23;;;;;;;;;;;11.80;53.30;;;;;;5056028;28;19920;-79
2023/03/17 08:16:49;;;;;;;;;;;11.90;53.10;;;;;;5072528;28;19923;-79
2023/03/17 08:19:15;;;;;;;;;;;11.90;53.60;;;;;;5065819;28;19965;-79
2023/03/17 08:21:40;;;;;;;;;;;11.90;53.10;;;;;;5049425;28;20296;-79
2023/03/17 08:24:06;;;;;;;;;;;12.10;52.90;;;;;;5064631;28;19960;-78
2023/03/17 08:26:32;;;;;;;;;;;12.10;52.70;;;;;;5061468;28;19952;-78
2023/03/17 08:28:57;;;;;;;;;;;12.20;52.40;;;;;;5043764;28;20334;-77
2023/03/17 08:31:23;;;;;;;;;;;12.10;52.40;;;;;;5045294;28;19912;-78
2023/03/17 08:33:52;;;;;;;;;;;12.10;52.80;;;;;;5063575;28;19983;-77
2023/03/17 08:36:18;;;;;;;;;;;12.10;53.00;;;;;;5043595;28;19920;-78
2023/03/17 08:38:44;;;;;;;;;;;12.20;53.00;;;;;;5045485;28;19909;-77
2023/03/17 08:41:12;;;;;;;;;;;12.20;53.10;;;;;;5046975;28;20728;-77
2023/03/17 08:43:37;;;;;;;;;;;12.20;53.30;;;;;;5055619;28;19940;-81
2023/03/17 08:46:05;;;;;;;;;;;12.30;52.30;;;;;;5085451;28;19905;-83
2023/03/17 08:48:30;;;;;;;;;;;12.30;53.10;;;;;;5073227;28;19925;-83
2023/03/17 08:50:56;;;;;;;;;;;12.40;52.80;;;;;;5059420;28;19970;-79
2023/03/17 08:53:23;;;;;;;;;;;12.40;52.50;;;;;;5047406;28;19969;-85
2023/03/17 08:55:48;;;;;;;;;;;12.60;52.70;;;;;;5050091;28;19913;-86
2023/03/17 08:58:14;;;;;;;;;;;12.60;52.30;;;;;;5050021;28;19912;-79
2023/03/17 09:00:39;;;;;;;;;;;12.80;51.50;;;;;;5049074;28;20386;-82
2023/03/17 09:03:05;;;;;;;;;;;12.80;51.40;;;;;;5051425;28;19908;-79
2023/03/17 09:05:31;;;;;;;;;;;12.80;51.60;;;;;;5064771;28;20533;-83
2023/03/17 09:07:56;;;;;;;;;;;12.80;51.40;;;;;;5052794;28;19931;-82
2023/03/17 09:10:22;;;;;;;;;;;12.80;52.00;;;;;;5046881;28;19920;-87
2023/03/17 09:12:52;;;;;;;;;;;12.80;51.80;;;;;;5050641;28;19966;-86
2023/03/17 09:15:17;;;;;;;;;;;12.80;51.90;;;;;;5059547;28;19920;-85
2023/03/17 09:17:43;;;;;;;;;;;12.80;52.30;;;;;;5080072;28;19909;-82
2023/03/17 09:20:10;;;;;;;;;;;12.80;52.00;;;;;;5061391;28;19924;-82
2023/03/17 09:22:36;;;;;;;;;;;13.00;52.30;;;;;;5053951;28;19920;-81
2023/03/17 09:25:02;;;;;;;;;;;13.10;52.40;;;;;;5056581;28;20224;-84
2023/03/17 09:27:28;;;;;;;;;;;13.10;51.70;;;;;;5055970;28;20000;-84
2023/03/17 09:29:53;;;;;;;;;;;13.00;51.80;;;;;;5050032;28;19947;-82
2023/03/17 09:32:19;;;;;;;;;;;13.20;51.70;;;;;;5053489;28;19913;-82
2023/03/17 09:34:46;;;;;;;;;;;13.30;52.00;;;;;;5057492;28;19920;-85
2023/03/17 09:37:11;;;;;;;;;;;13.30;52.20;;;;;;5051685;28;19989;-82
2023/03/17 09:39:37;;;;;;;;;;;13.30;52.50;;;;;;5062572;28;19952;-83
2023/03/17 09:42:02;;;;;;;;;;;13.50;52.50;;;;;;5049824;28;19919;-83
2023/03/17 09:44:31;;;;;;;;;;;13.60;51.10;;;;;;5051048;28;19916;-83
2023/03/17 09:47:16;;;;;;;;;;;13.60;51.40;;;;;;5064182;28;19917;-83
2023/03/17 09:49:47;;;;;;;;;;;13.70;51.10;;;;;;5037402;28;19913;-85
2023/03/17 09:52:14;;;;;;;;;;;13.90;51.90;;;;;;5051160;28;19920;-82
2023/03/17 09:54:40;;;;;;;;;;;14.10;51.10;;;;;;5051426;28;20019;-84
2023/03/17 09:57:12;;;;;;;;;;;14.10;51.10;;;;;;5056525;28;20009;-82
2023/03/17 09:59:40;;;;;;;;;;;14.00;50.90;;;;;;5052953;28;19912;-82
2023/03/17 10:02:32;;;;;;;;;;;14.10;51.10;;;;;;5071281;28;20387;-83
2023/03/17 10:05:12;;;;;;;;;;;14.10;50.90;;;;;;5042755;28;19925;-83
2023/03/17 10:07:37;;;;;;;;;;;14.20;50.70;;;;;;5050935;28;19986;-80
2023/03/17 10:10:04;;;;;;;;;;;14.30;50.20;;;;;;5053763;28;20628;-82
2023/03/17 10:12:35;;;;;;;;;;;14.30;50.50;;;;;;5055111;28;19916;-82
2023/03/17 10:15:05;;;;;;;;;;;14.30;49.50;;;;;;5056531;28;19923;-83
2023/03/17 10:17:34;;;;;;;;;;;14.50;49.80;;;;;;5053878;28;19920;-83
2023/03/17 10:20:07;;;;;;;;;;;14.40;49.20;;;;;;5051599;28;19912;-84
2023/03/17 10:22:35;;;;;;;;;;;14.50;49.70;;;;;;5053950;28;19912;-84
2023/03/17 10:25:02;;;;;;;;;;;14.50;50.10;;;;;;5055412;28;19913;-84
2023/03/17 10:27:30;;;;;;;;;;;14.60;50.10;;;;;;5075280;28;19924;-84
2023/03/17 10:29:55;;;;;;;;;;;14.70;49.90;;;;;;5057095;28;20007;-83
2023/03/17 10:32:21;;;;;;;;;;;14.80;48.40;;;;;;5047554;28;20348;-84
2023/03/17 10:34:47;;;;;;;;;;;14.80;49.60;;;;;;5054685;28;19920;-83
2023/03/17 10:37:21;;;;;;;;;;;14.80;49.40;;;;;;5066249;28;19931;-87
2023/03/17 10:39:48;;;;;;;;;;;14.60;49.30;;;;;;5049563;28;19937;-85
2023/03/17 10:42:24;;;;;;;;;;;14.60;49.10;;;;;;5048271;28;19916;-82
2023/03/17 10:44:57;;;;;;;;;;;14.50;49.20;;;;;;5055370;28;19913;-85
2023/03/17 10:47:33;;;;;;;;;;;14.50;49.80;;;;;;5079037;28;19963;-85
2023/03/17 10:50:15;;;;;;;;;;;14.60;50.60;;;;;;5051244;28;19973;-84
2023/03/17 10:52:41;;;;;;;;;;;14.80;49.20;;;;;;5051595;28;20347;-84
2023/03/17 10:55:12;;;;;;;;;;;15.00;49.00;;;;;;5048961;28;20445;-85
2023/03/17 10:57:38;;;;;;;;;;;15.30;48.00;;;;;;5053498;28;19934;-86
2023/03/17 11:00:15;;;;;;;;;;;15.50;48.10;;;;;;5062650;28;19908;-83
2023/03/17 11:02:46;;;;;;;;;;;15.50;49.30;;;;;;5057948;28;20295;-83
2023/03/17 11:05:23;;;;;;;;;;;15.60;48.40;;;;;;5060257;28;19986;-83
2023/03/17 11:07:49;;;;;;;;;;;15.40;48.30;;;;;;5047923;28;19916;-83
2023/03/17 11:10:22;;;;;;;;;;;15.20;48.40;;;;;;5061044;28;20287;-84
2023/03/17 11:12:53;;;;;;;;;;;15.30;48.70;;;;;;5052879;28;19913;-84
2023/03/17 11:15:20;;;;;;;;;;;15.20;49.70;;;;;;5078537;28;19916;-84
2023/03/17 11:17:57;;;;;;;;;;;15.40;49.20;;;;;;5057672;28;19919;-84
2023/03/17 11:20:36;;;;;;;;;;;15.60;48.90;;;;;;5050169;28;19940;-84
2023/03/17 11:23:04;;;;;;;;;;;15.70;49.10;;;;;;5080134;28;19974;-85
2023/03/17 11:25:31;;;;;;;;;;;15.90;48.20;;;;;;5054043;28;20031;-86
2023/03/17 11:28:15;;;;;;;;;;;16.00;47.30;;;;;;5058840;28;19916;-84
2023/03/17 11:30:49;;;;;;;;;;;16.10;47.20;;;;;;5053412;28;20289;-84
2023/03/17 11:33:15;;;;;;;;;;;16.10;48.10;;;;;;5061513;28;21026;-81
2023/03/17 11:35:59;;;;;;;;;;;16.10;47.20;;;;;;5070640;28;19912;-80
2023/03/17 11:38:27;;;;;;;;;;;16.20;46.80;;;;;;5052712;28;19919;-81
2023/03/17 11:41:09;;;;;;;;;;;16.30;46.80;;;;;;5054379;28;19970;-85
2023/03/17 11:43:35;;;;;;;;;;;16.30;46.80;;;;;;5066400;28;19912;-84
2023/03/17 11:46:07;;;;;;;;;;;16.50;47.20;;;;;;5057630;28;19983;-85
2023/03/17 11:48:33;;;;;;;;;;;16.50;46.20;;;;;;5058330;28;19931;-83
2023/03/17 11:51:05;;;;;;;;;;;16.60;46.30;;;;;;5073019;28;20045;-84
2023/03/17 11:53:48;;;;;;;;;;;16.80;45.90;;;;;;5058750;28;19916;-84
2023/03/17 11:56:43;;;;;;;;;;;16.90;45.80;;;;;;5059417;28;20007;-85
2023/03/17 11:59:14;;;;;;;;;;;16.90;44.90;;;;;;5036902;28;19913;-84
2023/03/17 12:02:00;;;;;;;;;;;17.00;45.90;;;;;;5059426;28;19916;-87
2023/03/17 12:04:33;;;;;;;;;;;17.10;45.60;;;;;;5008578;28;19916;-86
2023/03/17 12:07:12;;;;;;;;;;;17.10;45.90;;;;;;5071859;28;19920;-84
2023/03/17 12:09:44;;;;;;;;;;;17.00;45.80;;;;;;5058945;28;19928;-84
2023/03/17 12:12:11;;;;;;;;;;;17.10;45.80;;;;;;5079709;28;19912;-85
2023/03/17 12:14:47;;;;;;;;;;;17.10;45.70;;;;;;5057984;28;19913;-86
2023/03/17 12:17:17;;;;;;;;;;;17.10;45.40;;;;;;5047524;28;20291;-88
2023/03/17 12:19:56;;;;;;;;;;;17.20;45.80;;;;;;5052131;28;19912;-85
2023/03/17 12:22:25;;;;;;;;;;;17.30;45.10;;;;;;5048811;28;20272;-82
2023/03/17 12:25:09;;;;;;;;;;;17.10;45.20;;;;;;5047721;28;19913;-85
2023/03/17 12:27:54;;;;;;;;;;;17.10;45.30;;;;;;5054099;28;19916;-83
2023/03/17 12:30:27;;;;;;;;;;;17.20;44.30;;;;;;5077478;28;19922;-83
2023/03/17 12:33:11;;;;;;;;;;;17.20;44.90;;;;;;5049238;28;19966;-82
2023/03/17 12:35:39;;;;;;;;;;;17.30;44.70;;;;;;5061876;28;19913;-84
2023/03/17 12:38:23;;;;;;;;;;;17.10;45.60;;;;;;5073741;28;19904;-85
2023/03/17 12:40:51;;;;;;;;;;;17.10;46.20;;;;;;5056749;28;19921;-82
2023/03/17 12:43:32;;;;;;;;;;;17.20;44.90;;;;;;5058371;28;20310;-84
2023/03/17 12:46:17;;;;;;;;;;;17.30;44.10;;;;;;5061029;28;19982;-86
2023/03/17 12:49:11;;;;;;;;;;;17.30;44.20;;;;;;5079676;28;19912;-85
2023/03/17 12:51:40;;;;;;;;;;;17.40;44.40;;;;;;5054845;28;19919;-87
2023/03/17 12:54:14;;;;;;;;;;;17.30;44.40;;;;;;5056909;28;19909;-81
2023/03/17 12:56:43;;;;;;;;;;;17.20;44.30;;;;;;5069799;28;19920;-80
2023/03/17 12:59:15;;;;;;;;;;;17.20;44.60;;;;;;5067221;28;19913;-77
2023/03/17 13:01:45;;;;;;;;;;;17.20;44.90;;;;;;5047465;28;19920;-78
2023/03/17 13:04:10;;;;;;;;;;;17.30;45.20;;;;;;5059966;28;19986;-79
2023/03/17 13:06:41;;;;;;;;;;;17.30;44.40;;;;;;5066167;28;19912;-78
2023/03/17 13:09:26;;;;;;;;;;;17.50;44.30;;;;;;5066688;28;19962;-80
2023/03/17 13:11:52;;;;;;;;;;;17.50;44.30;;;;;;5038772;28;19924;-81
2023/03/17 13:14:26;;;;;;;;;;;17.40;44.60;;;;;;5040465;28;19909;-82
2023/03/17 13:17:02;;;;;;;;;;;17.50;44.80;;;;;;5047650;28;19927;-81
2023/03/17 13:19:31;;;;;;;;;;;17.50;45.10;;;;;;5041382;28;19919;-81
2023/03/17 13:22:03;;;;;;;;;;;17.60;44.70;;;;;;5053022;28;20283;-80
2023/03/17 13:24:51;;;;;;;;;;;17.80;44.30;;;;;;5071851;28;19916;-82
2023/03/17 13:27:28;;;;;;;;;;;17.80;44.20;;;;;;5050813;28;19924;-82
2023/03/17 13:29:54;;;;;;;;;;;17.70;44.80;;;;;;5053677;28;19909;-81
2023/03/17 13:32:23;;;;;;;;;;;17.70;44.30;;;;;;5063142;28;19980;-80
2023/03/17 13:34:54;;;;;;;;;;;17.60;45.10;;;;;;5058433;28;19909;-82
2023/03/17 13:37:27;;;;;;;;;;;17.50;45.10;;;;;;5066008;28;19927;-80
2023/03/17 13:40:06;;;;;;;;;;;17.50;45.20;;;;;;5073361;28;19913;-81
2023/03/17 13:42:44;;;;;;;;;;;17.40;45.50;;;;;;5062585;28;19917;-81
2023/03/17 13:45:15;;;;;;;;;;;17.50;45.80;;;;;;5057937;28;19912;-81
2023/03/17 13:47:41;;;;;;;;;;;17.40;46.20;;;;;;5083231;28;19917;-82
2023/03/17 13:50:07;;;;;;;;;;;17.50;45.50;;;;;;5056052;28;19943;-84
2023/03/17 13:52:38;;;;;;;;;;;17.50;45.30;;;;;;5090352;28;20027;-82
2023/03/17 13:55:16;;;;;;;;;;;17.60;45.00;;;;;;5056577;28;19972;-83
2023/03/17 13:57:41;;;;;;;;;;;17.80;45.20;;;;;;5058212;28;19920;-82
2023/03/17 14:00:27;;;;;;;;;;;17.80;44.70;;;;;;5063775;28;19913;-83
2023/03/17 14:03:00;;;;;;;;;;;17.80;44.80;;;;;;5081642;28;19927;-82
2023/03/17 14:05:28;;;;;;;;;;;17.80;45.00;;;;;;5083525;28;19984;-83
2023/03/17 14:07:57;;;;;;;;;;;18.00;44.50;;;;;;5068183;28;19920;-83
2023/03/17 14:10:24;;;;;;;;;;;17.70;45.20;;;;;;5051505;28;19917;-81
2023/03/17 14:12:50;;;;;;;;;;;17.70;45.30;;;;;;5072617;28;19931;-82
2023/03/17 14:15:31;;;;;;;;;;;17.60;45.90;;;;;;5050983;28;20277;-79
2023/03/17 14:18:00;;;;;;;;;;;17.60;45.10;;;;;;5073315;28;20040;-79
2023/03/17 14:20:26;;;;;;;;;;;17.60;44.90;;;;;;5058138;28;20083;-81
2023/03/17 14:22:54;;;;;;;;;;;17.70;44.60;;;;;;5072415;28;19955;-79
2023/03/17 14:25:22;;;;;;;;;;;17.70;44.90;;;;;;5051616;28;19967;-79
2023/03/17 14:27:51;;;;;;;;;;;17.80;44.90;;;;;;5067313;28;19917;-78
2023/03/17 14:30:24;;;;;;;;;;;17.60;45.40;;;;;;5061248;28;19944;-79
2023/03/17 14:32:54;;;;;;;;;;;17.50;45.70;;;;;;5073635;28;19909;-80